sensor_id;sensor_type;location;lat;lon;timestamp;temperature;humidity
9885;DHT22;4981;50.966;4.842;2022-11-20T00:00:21;3.20;1.00
9885;DHT22;4981;50.966;4.842;2022-11-20T00:02:49;3.30;1.00
9885;DHT22;4981;50.966;4.842;2022-11-20T00:05:16;3.30;1.00
9885;DHT22;4981;50.966;4.842;2022-11-20T00:07:43;3.30;1.00
9885;DHT22;4981;50.966;4.842;2022-11-20T00:10:10;3.20;1.00
9885;DHT22;4981;50.966;4.842;2022-11-20T00:12:38;3.10;1.00
9885;DHT22;4981;50.966;4.842;2022-11-20T00:15:07;3.00;1.00
9885;DHT22;4981;50.966;4.842;2022-11-20T00:17:35;3.10;1.00
9885;DHT22;4981;50.966;4.842;2022-11-20T00:20:03;3.00;1.00
9885;DHT22;4981;50.966;4.842;2022-11-20T00:22:30;2.90;1.00
9885;DHT22;4981;50.966;4.842;2022-11-20T00:24:57;2.90;1.00
9885;DHT22;4981;50.966;4.842;2022-11-20T00:27:24;2.70;1.00
9885;DHT22;4981;50.966;4.842;2022-11-20T00:29:51;3.10;1.00
9885;DHT22;4981;50.966;4.842;2022-11-20T00:32:20;2.90;1.00
9885;DHT22;4981;50.966;4.842;2022-11-20T00:34:47;3.00;1.00
9885;DHT22;4981;50.966;4.842;2022-11-20T00:37:14;3.10;1.00
9885;DHT22;4981;50.966;4.842;2022-11-20T00:39:41;3.00;1.00
9885;DHT22;4981;50.966;4.842;2022-11-20T00:42:08;3.10;1.00
9885;DHT22;4981;50.966;4.842;2022-11-20T00:44:35;3.10;1.00
9885;DHT22;4981;50.966;4.842;2022-11-20T00:47:02;3.10;1.00
9885;DHT22;4981;50.966;4.842;2022-11-20T00:49:31;3.00;1.00
9885;DHT22;4981;50.966;4.842;2022-11-20T00:51:58;2.90;1.00
9885;DHT22;4981;50.966;4.842;2022-11-20T00:54:25;2.80;1.00
9885;DHT22;4981;50.966;4.842;2022-11-20T00:56:53;2.80;1.00
9885;DHT22;4981;50.966;4.842;2022-11-20T00:59:19;2.80;1.00
9885;DHT22;4981;50.966;4.842;2022-11-20T01:01:47;2.90;1.00
9885;DHT22;4981;50.966;4.842;2022-11-20T01:04:14;3.00;1.00
9885;DHT22;4981;50.966;4.842;2022-11-20T01:06:43;3.00;1.00
9885;DHT22;4981;50.966;4.842;2022-11-20T01:09:12;2.90;1.00
9885;DHT22;4981;50.966;4.842;2022-11-20T01:11:41;3.00;1.00
9885;DHT22;4981;50.966;4.842;2022-11-20T01:14:11;3.00;1.00
9885;DHT22;4981;50.966;4.842;2022-11-20T01:16:40;3.00;1.00
9885;DHT22;4981;50.966;4.842;2022-11-20T01:19:11;3.10;1.00
9885;DHT22;4981;50.966;4.842;2022-11-20T01:21:40;3.10;1.00
9885;DHT22;4981;50.966;4.842;2022-11-20T01:24:11;3.20;1.00
9885;DHT22;4981;50.966;4.842;2022-11-20T01:26:40;3.00;1.00
9885;DHT22;4981;50.966;4.842;2022-11-20T01:29:08;3.00;1.00
9885;DHT22;4981;50.966;4.842;2022-11-20T01:31:37;2.90;1.00
9885;DHT22;4981;50.966;4.842;2022-11-20T01:34:09;3.10;1.00
9885;DHT22;4981;50.966;4.842;2022-11-20T01:36:37;3.10;1.00
9885;DHT22;4981;50.966;4.842;2022-11-20T01:39:07;3.20;1.00
9885;DHT22;4981;50.966;4.842;2022-11-20T01:41:36;3.20;1.00
9885;DHT22;4981;50.966;4.842;2022-11-20T01:44:39;3.20;1.00
9885;DHT22;4981;50.966;4.842;2022-11-20T01:47:09;3.20;1.00
9885;DHT22;4981;50.966;4.842;2022-11-20T01:49:44;3.20;1.00
9885;DHT22;4981;50.966;4.842;2022-11-20T01:52:16;3.10;1.00
9885;DHT22;4981;50.966;4.842;2022-11-20T01:54:46;3.10;1.00
9885;DHT22;4981;50.966;4.842;2022-11-20T01:57:17;2.10;1.00
9885;DHT22;4981;50.966;4.842;2022-11-20T01:59:47;3.20;1.00
9885;DHT22;4981;50.966;4.842;2022-11-20T02:02:16;2.10;1.00
9885;DHT22;4981;50.966;4.842;2022-11-20T02:04:43;3.00;1.00
9885;DHT22;4981;50.966;4.842;2022-11-20T02:07:11;2.90;1.00
9885;DHT22;4981;50.966;4.842;2022-11-20T02:09:38;3.00;1.00
9885;DHT22;4981;50.966;4.842;2022-11-20T02:12:06;2.90;1.00
9885;DHT22;4981;50.966;4.842;2022-11-20T02:14:54;2.90;1.00
9885;DHT22;4981;50.966;4.842;2022-11-20T02:17:20;3.00;1.00
9885;DHT22;4981;50.966;4.842;2022-11-20T02:19:47;3.00;1.00
9885;DHT22;4981;50.966;4.842;2022-11-20T02:22:19;3.10;1.00
9885;DHT22;4981;50.966;4.842;2022-11-20T02:24:50;2.80;1.00
9885;DHT22;4981;50.966;4.842;2022-11-20T02:27:18;3.00;1.00
9885;DHT22;4981;50.966;4.842;2022-11-20T02:29:49;3.00;1.00
9885;DHT22;4981;50.966;4.842;2022-11-20T02:32:19;3.00;1.00
9885;DHT22;4981;50.966;4.842;2022-11-20T02:34:46;3.30;1.00
9885;DHT22;4981;50.966;4.842;2022-11-20T02:37:14;3.10;1.00
9885;DHT22;4981;50.966;4.842;2022-11-20T02:39:42;3.00;1.00
9885;DHT22;4981;50.966;4.842;2022-11-20T02:42:11;3.40;1.00
9885;DHT22;4981;50.966;4.842;2022-11-20T02:44:38;3.10;1.00
9885;DHT22;4981;50.966;4.842;2022-11-20T02:47:05;3.30;1.00
9885;DHT22;4981;50.966;4.842;2022-11-20T02:49:32;3.00;1.00
9885;DHT22;4981;50.966;4.842;2022-11-20T02:52:00;2.90;1.00
9885;DHT22;4981;50.966;4.842;2022-11-20T02:54:26;3.00;1.00
9885;DHT22;4981;50.966;4.842;2022-11-20T02:56:54;3.00;1.00
9885;DHT22;4981;50.966;4.842;2022-11-20T02:59:22;3.00;1.00
9885;DHT22;4981;50.966;4.842;2022-11-20T03:01:50;3.00;1.00
9885;DHT22;4981;50.966;4.842;2022-11-20T03:04:17;2.90;1.00
9885;DHT22;4981;50.966;4.842;2022-11-20T03:06:44;2.90;1.00
9885;DHT22;4981;50.966;4.842;2022-11-20T03:09:12;3.00;1.00
9885;DHT22;4981;50.966;4.842;2022-11-20T03:11:39;3.10;1.00
9885;DHT22;4981;50.966;4.842;2022-11-20T03:14:06;3.00;1.00
9885;DHT22;4981;50.966;4.842;2022-11-20T03:16:35;3.00;1.00
9885;DHT22;4981;50.966;4.842;2022-11-20T03:19:02;2.70;1.00
9885;DHT22;4981;50.966;4.842;2022-11-20T03:21:30;3.10;1.00
9885;DHT22;4981;50.966;4.842;2022-11-20T03:23:57;3.20;1.00
9885;DHT22;4981;50.966;4.842;2022-11-20T03:26:26;3.50;1.00
9885;DHT22;4981;50.966;4.842;2022-11-20T03:28:55;3.10;1.00
9885;DHT22;4981;50.966;4.842;2022-11-20T03:31:24;2.90;1.00
9885;DHT22;4981;50.966;4.842;2022-11-20T03:33:54;2.90;1.00
9885;DHT22;4981;50.966;4.842;2022-11-20T03:36:21;3.10;1.00
9885;DHT22;4981;50.966;4.842;2022-11-20T03:38:48;3.10;1.00
9885;DHT22;4981;50.966;4.842;2022-11-20T03:41:18;2.90;1.00
9885;DHT22;4981;50.966;4.842;2022-11-20T03:43:48;3.00;1.00
9885;DHT22;4981;50.966;4.842;2022-11-20T03:46:16;3.10;1.00
9885;DHT22;4981;50.966;4.842;2022-11-20T03:48:43;3.10;1.00
9885;DHT22;4981;50.966;4.842;2022-11-20T03:51:13;2.90;1.00
9885;DHT22;4981;50.966;4.842;2022-11-20T03:53:42;2.90;1.00
9885;DHT22;4981;50.966;4.842;2022-11-20T03:56:09;2.90;1.00
9885;DHT22;4981;50.966;4.842;2022-11-20T03:58:38;2.90;1.00
9885;DHT22;4981;50.966;4.842;2022-11-20T04:01:06;3.00;1.00
9885;DHT22;4981;50.966;4.842;2022-11-20T04:03:34;3.00;1.00
9885;DHT22;4981;50.966;4.842;2022-11-20T04:06:03;3.10;1.00
9885;DHT22;4981;50.966;4.842;2022-11-20T04:08:32;2.80;1.00
9885;DHT22;4981;50.966;4.842;2022-11-20T04:11:09;3.00;1.00
9885;DHT22;4981;50.966;4.842;2022-11-20T04:13:37;2.90;1.00
9885;DHT22;4981;50.966;4.842;2022-11-20T04:16:04;2.80;1.00
9885;DHT22;4981;50.966;4.842;2022-11-20T04:18:32;2.80;1.00
9885;DHT22;4981;50.966;4.842;2022-11-20T04:21:00;2.90;1.00
9885;DHT22;4981;50.966;4.842;2022-11-20T04:23:28;2.90;1.00
9885;DHT22;4981;50.966;4.842;2022-11-20T04:26:00;3.30;1.00
9885;DHT22;4981;50.966;4.842;2022-11-20T04:28:28;3.10;1.00
9885;DHT22;4981;50.966;4.842;2022-11-20T04:31:01;3.00;1.00
9885;DHT22;4981;50.966;4.842;2022-11-20T04:33:29;2.90;1.00
9885;DHT22;4981;50.966;4.842;2022-11-20T04:36:03;3.00;1.00
9885;DHT22;4981;50.966;4.842;2022-11-20T04:38:31;3.00;1.00
9885;DHT22;4981;50.966;4.842;2022-11-20T04:41:01;3.00;1.00
9885;DHT22;4981;50.966;4.842;2022-11-20T04:43:29;3.20;1.00
9885;DHT22;4981;50.966;4.842;2022-11-20T04:45:58;2.90;1.00
9885;DHT22;4981;50.966;4.842;2022-11-20T04:48:26;2.80;1.00
9885;DHT22;4981;50.966;4.842;2022-11-20T04:50:53;3.10;1.00
9885;DHT22;4981;50.966;4.842;2022-11-20T04:53:21;2.90;1.00
9885;DHT22;4981;50.966;4.842;2022-11-20T04:55:49;3.20;1.00
9885;DHT22;4981;50.966;4.842;2022-11-20T04:58:17;3.00;1.00
9885;DHT22;4981;50.966;4.842;2022-11-20T05:00:45;3.00;1.00
9885;DHT22;4981;50.966;4.842;2022-11-20T05:03:12;3.00;1.00
9885;DHT22;4981;50.966;4.842;2022-11-20T05:05:39;2.90;1.00
9885;DHT22;4981;50.966;4.842;2022-11-20T05:08:06;3.00;1.00
9885;DHT22;4981;50.966;4.842;2022-11-20T05:10:33;3.60;1.00
9885;DHT22;4981;50.966;4.842;2022-11-20T05:13:00;3.10;1.00
9885;DHT22;4981;50.966;4.842;2022-11-20T05:15:29;3.10;1.00
9885;DHT22;4981;50.966;4.842;2022-11-20T05:17:56;3.10;1.00
9885;DHT22;4981;50.966;4.842;2022-11-20T05:20:23;3.10;1.00
9885;DHT22;4981;50.966;4.842;2022-11-20T05:22:50;3.10;1.00
9885;DHT22;4981;50.966;4.842;2022-11-20T05:25:17;2.90;1.00
9885;DHT22;4981;50.966;4.842;2022-11-20T05:27:44;3.00;1.00
9885;DHT22;4981;50.966;4.842;2022-11-20T05:30:13;3.10;1.00
9885;DHT22;4981;50.966;4.842;2022-11-20T05:32:41;3.20;1.00
9885;DHT22;4981;50.966;4.842;2022-11-20T05:35:09;3.10;1.00
9885;DHT22;4981;50.966;4.842;2022-11-20T05:37:35;3.10;1.00
9885;DHT22;4981;50.966;4.842;2022-11-20T05:40:03;3.00;1.00
9885;DHT22;4981;50.966;4.842;2022-11-20T05:42:30;3.10;1.00
9885;DHT22;4981;50.966;4.842;2022-11-20T05:44:58;3.10;1.00
9885;DHT22;4981;50.966;4.842;2022-11-20T05:47:27;3.00;1.00
9885;DHT22;4981;50.966;4.842;2022-11-20T05:49:55;3.10;1.00
9885;DHT22;4981;50.966;4.842;2022-11-20T05:52:23;3.10;1.00
9885;DHT22;4981;50.966;4.842;2022-11-20T05:54:50;3.10;1.00
9885;DHT22;4981;50.966;4.842;2022-11-20T05:57:17;3.00;1.00
9885;DHT22;4981;50.966;4.842;2022-11-20T05:59:44;3.10;1.00
9885;DHT22;4981;50.966;4.842;2022-11-20T06:02:11;3.10;1.00
9885;DHT22;4981;50.966;4.842;2022-11-20T06:04:38;3.20;1.00
9885;DHT22;4981;50.966;4.842;2022-11-20T06:07:07;3.20;1.00
9885;DHT22;4981;50.966;4.842;2022-11-20T06:09:34;3.20;1.00
9885;DHT22;4981;50.966;4.842;2022-11-20T06:12:01;3.20;1.00
9885;DHT22;4981;50.966;4.842;2022-11-20T06:14:29;3.20;1.00
9885;DHT22;4981;50.966;4.842;2022-11-20T06:16:56;3.20;1.00
9885;DHT22;4981;50.966;4.842;2022-11-20T06:19:23;3.20;1.00
9885;DHT22;4981;50.966;4.842;2022-11-20T06:21:50;3.10;1.00
9885;DHT22;4981;50.966;4.842;2022-11-20T06:24:18;3.20;1.00
9885;DHT22;4981;50.966;4.842;2022-11-20T06:26:45;3.60;1.00
9885;DHT22;4981;50.966;4.842;2022-11-20T06:29:12;3.10;1.00
9885;DHT22;4981;50.966;4.842;2022-11-20T06:31:39;3.20;1.00
9885;DHT22;4981;50.966;4.842;2022-11-20T06:34:08;2.90;1.00
9885;DHT22;4981;50.966;4.842;2022-11-20T06:36:35;3.40;1.00
9885;DHT22;4981;50.966;4.842;2022-11-20T06:39:03;3.10;1.00
9885;DHT22;4981;50.966;4.842;2022-11-20T06:41:32;3.00;1.00
9885;DHT22;4981;50.966;4.842;2022-11-20T06:44:00;2.80;1.00
9885;DHT22;4981;50.966;4.842;2022-11-20T06:46:27;2.60;1.00
9885;DHT22;4981;50.966;4.842;2022-11-20T06:48:54;2.50;1.00
9885;DHT22;4981;50.966;4.842;2022-11-20T06:51:21;2.60;1.00
9885;DHT22;4981;50.966;4.842;2022-11-20T06:53:48;2.80;1.00
9885;DHT22;4981;50.966;4.842;2022-11-20T06:56:15;2.60;1.00
9885;DHT22;4981;50.966;4.842;2022-11-20T06:58:44;2.60;1.00
9885;DHT22;4981;50.966;4.842;2022-11-20T07:01:14;2.60;1.00
9885;DHT22;4981;50.966;4.842;2022-11-20T07:03:42;2.80;1.00
9885;DHT22;4981;50.966;4.842;2022-11-20T07:06:10;2.70;1.00
9885;DHT22;4981;50.966;4.842;2022-11-20T07:08:37;2.80;1.00
9885;DHT22;4981;50.966;4.842;2022-11-20T07:11:06;2.80;1.00
9885;DHT22;4981;50.966;4.842;2022-11-20T07:13:33;3.30;1.00
9885;DHT22;4981;50.966;4.842;2022-11-20T07:16:04;3.00;1.00
9885;DHT22;4981;50.966;4.842;2022-11-20T07:18:31;3.00;1.00
9885;DHT22;4981;50.966;4.842;2022-11-20T07:21:00;3.20;1.00
9885;DHT22;4981;50.966;4.842;2022-11-20T07:23:27;3.40;1.00
9885;DHT22;4981;50.966;4.842;2022-11-20T07:25:55;3.30;1.00
9885;DHT22;4981;50.966;4.842;2022-11-20T07:28:22;3.40;1.00
9885;DHT22;4981;50.966;4.842;2022-11-20T07:30:50;3.40;1.00
9885;DHT22;4981;50.966;4.842;2022-11-20T07:33:19;3.40;1.00
9885;DHT22;4981;50.966;4.842;2022-11-20T07:35:46;3.50;1.00
9885;DHT22;4981;50.966;4.842;2022-11-20T07:38:13;3.40;1.00
9885;DHT22;4981;50.966;4.842;2022-11-20T07:40:41;3.60;1.00
9885;DHT22;4981;50.966;4.842;2022-11-20T07:43:08;3.60;1.00
9885;DHT22;4981;50.966;4.842;2022-11-20T07:45:35;3.60;1.00
9885;DHT22;4981;50.966;4.842;2022-11-20T07:48:03;3.60;1.00
9885;DHT22;4981;50.966;4.842;2022-11-20T07:50:31;3.70;1.00
9885;DHT22;4981;50.966;4.842;2022-11-20T07:53:03;3.70;1.00
9885;DHT22;4981;50.966;4.842;2022-11-20T07:55:30;4.00;1.00
9885;DHT22;4981;50.966;4.842;2022-11-20T07:57:57;3.80;1.00
9885;DHT22;4981;50.966;4.842;2022-11-20T08:00:25;3.80;1.00
9885;DHT22;4981;50.966;4.842;2022-11-20T08:02:52;4.00;1.00
9885;DHT22;4981;50.966;4.842;2022-11-20T08:05:20;3.90;1.00
9885;DHT22;4981;50.966;4.842;2022-11-20T08:07:48;4.00;1.00
9885;DHT22;4981;50.966;4.842;2022-11-20T08:10:16;3.90;1.00
9885;DHT22;4981;50.966;4.842;2022-11-20T08:12:44;3.90;1.00
9885;DHT22;4981;50.966;4.842;2022-11-20T08:15:27;4.10;1.00
9885;DHT22;4981;50.966;4.842;2022-11-20T08:17:59;4.10;1.00
9885;DHT22;4981;50.966;4.842;2022-11-20T08:20:26;4.10;1.00
9885;DHT22;4981;50.966;4.842;2022-11-20T08:22:59;4.20;1.00
9885;DHT22;4981;50.966;4.842;2022-11-20T08:25:27;4.60;1.00
9885;DHT22;4981;50.966;4.842;2022-11-20T08:27:57;4.40;1.00
9885;DHT22;4981;50.966;4.842;2022-11-20T08:30:25;4.30;1.00
9885;DHT22;4981;50.966;4.842;2022-11-20T08:32:53;4.30;1.00
9885;DHT22;4981;50.966;4.842;2022-11-20T08:35:20;4.40;1.00
9885;DHT22;4981;50.966;4.842;2022-11-20T08:37:48;4.60;1.00
9885;DHT22;4981;50.966;4.842;2022-11-20T08:40:16;4.40;1.00
9885;DHT22;4981;50.966;4.842;2022-11-20T08:42:47;4.40;1.00
9885;DHT22;4981;50.966;4.842;2022-11-20T08:45:15;4.60;1.00
9885;DHT22;4981;50.966;4.842;2022-11-20T08:47:42;4.50;1.00
9885;DHT22;4981;50.966;4.842;2022-11-20T08:50:10;4.50;1.00
9885;DHT22;4981;50.966;4.842;2022-11-20T08:52:37;4.60;1.00
9885;DHT22;4981;50.966;4.842;2022-11-20T08:55:06;4.60;1.00
9885;DHT22;4981;50.966;4.842;2022-11-20T08:57:35;4.60;1.00
9885;DHT22;4981;50.966;4.842;2022-11-20T09:00:03;4.70;1.00
9885;DHT22;4981;50.966;4.842;2022-11-20T09:02:32;4.70;1.00
9885;DHT22;4981;50.966;4.842;2022-11-20T09:04:59;4.70;1.00
9885;DHT22;4981;50.966;4.842;2022-11-20T09:07:28;4.90;1.00
9885;DHT22;4981;50.966;4.842;2022-11-20T09:09:55;4.80;1.00
9885;DHT22;4981;50.966;4.842;2022-11-20T09:12:22;4.90;1.00
9885;DHT22;4981;50.966;4.842;2022-11-20T09:14:51;4.90;1.00
9885;DHT22;4981;50.966;4.842;2022-11-20T09:17:18;4.90;1.00
9885;DHT22;4981;50.966;4.842;2022-11-20T09:19:46;5.00;1.00
9885;DHT22;4981;50.966;4.842;2022-11-20T09:22:13;5.00;1.00
9885;DHT22;4981;50.966;4.842;2022-11-20T09:24:41;5.10;1.00
9885;DHT22;4981;50.966;4.842;2022-11-20T09:27:08;5.00;1.00
9885;DHT22;4981;50.966;4.842;2022-11-20T09:29:36;5.20;1.00
9885;DHT22;4981;50.966;4.842;2022-11-20T09:32:05;5.20;1.00
9885;DHT22;4981;50.966;4.842;2022-11-20T09:34:32;5.20;1.00
9885;DHT22;4981;50.966;4.842;2022-11-20T09:36:59;5.20;1.00
9885;DHT22;4981;50.966;4.842;2022-11-20T09:39:26;5.40;1.00
9885;DHT22;4981;50.966;4.842;2022-11-20T09:42:11;5.30;1.00
9885;DHT22;4981;50.966;4.842;2022-11-20T09:44:56;5.30;1.00
9885;DHT22;4981;50.966;4.842;2022-11-20T09:47:41;5.50;1.00
9885;DHT22;4981;50.966;4.842;2022-11-20T09:50:23;5.30;1.00
9885;DHT22;4981;50.966;4.842;2022-11-20T09:53:04;5.50;1.00
9885;DHT22;4981;50.966;4.842;2022-11-20T09:55:36;4.70;1.00
9885;DHT22;4981;50.966;4.842;2022-11-20T09:58:06;5.10;1.00
9885;DHT22;4981;50.966;4.842;2022-11-20T10:00:35;5.70;1.00
9885;DHT22;4981;50.966;4.842;2022-11-20T10:03:13;4.90;1.00
9885;DHT22;4981;50.966;4.842;2022-11-20T10:05:43;5.60;1.00
9885;DHT22;4981;50.966;4.842;2022-11-20T10:08:17;5.70;1.00
9885;DHT22;4981;50.966;4.842;2022-11-20T10:10:47;5.80;1.00
9885;DHT22;4981;50.966;4.842;2022-11-20T10:13:27;5.70;1.00
9885;DHT22;4981;50.966;4.842;2022-11-20T10:16:07;5.80;1.00
9885;DHT22;4981;50.966;4.842;2022-11-20T10:18:48;5.80;1.00
9885;DHT22;4981;50.966;4.842;2022-11-20T10:21:25;5.90;1.00
9885;DHT22;4981;50.966;4.842;2022-11-20T10:26:49;6.00;1.00
9885;DHT22;4981;50.966;4.842;2022-11-20T10:29:23;6.00;1.00
9885;DHT22;4981;50.966;4.842;2022-11-20T10:32:00;5.90;1.00
9885;DHT22;4981;50.966;4.842;2022-11-20T10:34:33;6.10;1.00
9885;DHT22;4981;50.966;4.842;2022-11-20T10:37:06;6.10;1.00
9885;DHT22;4981;50.966;4.842;2022-11-20T10:39:41;6.20;1.00
9885;DHT22;4981;50.966;4.842;2022-11-20T10:42:13;6.20;1.00
9885;DHT22;4981;50.966;4.842;2022-11-20T10:44:47;6.30;1.00
9885;DHT22;4981;50.966;4.842;2022-11-20T10:47:31;6.30;1.00
9885;DHT22;4981;50.966;4.842;2022-11-20T10:50:03;6.50;1.00
9885;DHT22;4981;50.966;4.842;2022-11-20T10:52:40;6.50;1.00
9885;DHT22;4981;50.966;4.842;2022-11-20T10:55:22;6.50;1.00
9885;DHT22;4981;50.966;4.842;2022-11-20T10:57:54;6.50;1.00
9885;DHT22;4981;50.966;4.842;2022-11-20T11:00:30;6.60;1.00
9885;DHT22;4981;50.966;4.842;2022-11-20T11:02:57;6.70;1.00
9885;DHT22;4981;50.966;4.842;2022-11-20T11:05:37;6.60;1.00
9885;DHT22;4981;50.966;4.842;2022-11-20T11:08:11;6.70;1.00
9885;DHT22;4981;50.966;4.842;2022-11-20T11:10:43;6.80;1.00
9885;DHT22;4981;50.966;4.842;2022-11-20T11:13:20;7.00;1.00
9885;DHT22;4981;50.966;4.842;2022-11-20T11:15:48;7.10;1.00
9885;DHT22;4981;50.966;4.842;2022-11-20T11:18:24;7.20;1.00
9885;DHT22;4981;50.966;4.842;2022-11-20T11:20:54;6.70;1.00
9885;DHT22;4981;50.966;4.842;2022-11-20T11:23:33;7.30;1.00
9885;DHT22;4981;50.966;4.842;2022-11-20T11:26:03;7.40;1.00
9885;DHT22;4981;50.966;4.842;2022-11-20T11:28:31;7.40;1.00
9885;DHT22;4981;50.966;4.842;2022-11-20T11:31:00;7.50;1.00
9885;DHT22;4981;50.966;4.842;2022-11-20T11:33:28;7.60;1.00
9885;DHT22;4981;50.966;4.842;2022-11-20T11:36:00;7.70;1.00
9885;DHT22;4981;50.966;4.842;2022-11-20T11:38:30;7.90;1.00
9885;DHT22;4981;50.966;4.842;2022-11-20T11:40:58;7.80;1.00
9885;DHT22;4981;50.966;4.842;2022-11-20T11:43:27;7.80;1.00
9885;DHT22;4981;50.966;4.842;2022-11-20T11:46:28;7.90;1.00
9885;DHT22;4981;50.966;4.842;2022-11-20T11:48:58;8.00;1.00
9885;DHT22;4981;50.966;4.842;2022-11-20T11:51:32;8.00;1.00
9885;DHT22;4981;50.966;4.842;2022-11-20T11:54:01;8.00;1.00
9885;DHT22;4981;50.966;4.842;2022-11-20T11:56:30;8.00;1.00
9885;DHT22;4981;50.966;4.842;2022-11-20T11:59:05;7.90;1.00
9885;DHT22;4981;50.966;4.842;2022-11-20T12:01:36;8.10;1.00
9885;DHT22;4981;50.966;4.842;2022-11-20T12:04:14;8.10;1.00
9885;DHT22;4981;50.966;4.842;2022-11-20T12:07:03;8.20;1.00
9885;DHT22;4981;50.966;4.842;2022-11-20T12:09:37;8.20;1.00
9885;DHT22;4981;50.966;4.842;2022-11-20T12:12:08;8.30;1.00
9885;DHT22;4981;50.966;4.842;2022-11-20T12:14:39;8.40;1.00
9885;DHT22;4981;50.966;4.842;2022-11-20T12:17:08;8.50;1.00
9885;DHT22;4981;50.966;4.842;2022-11-20T12:19:37;8.50;1.00
9885;DHT22;4981;50.966;4.842;2022-11-20T12:22:12;8.60;1.00
9885;DHT22;4981;50.966;4.842;2022-11-20T12:24:52;8.50;1.00
9885;DHT22;4981;50.966;4.842;2022-11-20T12:27:48;8.50;1.00
9885;DHT22;4981;50.966;4.842;2022-11-20T12:30:18;8.50;1.00
9885;DHT22;4981;50.966;4.842;2022-11-20T12:33:01;8.50;1.00
9885;DHT22;4981;50.966;4.842;2022-11-20T12:35:39;8.40;1.00
9885;DHT22;4981;50.966;4.842;2022-11-20T12:38:34;8.30;1.00
9885;DHT22;4981;50.966;4.842;2022-11-20T12:41:11;8.30;1.00
9885;DHT22;4981;50.966;4.842;2022-11-20T12:44:11;9.00;1.00
9885;DHT22;4981;50.966;4.842;2022-11-20T12:47:10;8.20;1.00
9885;DHT22;4981;50.966;4.842;2022-11-20T12:49:45;8.10;1.00
9885;DHT22;4981;50.966;4.842;2022-11-20T12:52:29;8.20;1.00
9885;DHT22;4981;50.966;4.842;2022-11-20T12:55:13;8.00;1.00
9885;DHT22;4981;50.966;4.842;2022-11-20T12:57:48;7.80;1.00
9885;DHT22;4981;50.966;4.842;2022-11-20T13:00:18;7.70;1.00
9885;DHT22;4981;50.966;4.842;2022-11-20T13:03:03;7.60;1.00
9885;DHT22;4981;50.966;4.842;2022-11-20T13:05:40;7.60;1.00
9885;DHT22;4981;50.966;4.842;2022-11-20T13:08:20;7.50;1.00
9885;DHT22;4981;50.966;4.842;2022-11-20T13:10:56;7.60;1.00
9885;DHT22;4981;50.966;4.842;2022-11-20T13:13:31;7.40;1.00
9885;DHT22;4981;50.966;4.842;2022-11-20T13:16:06;7.40;1.00
9885;DHT22;4981;50.966;4.842;2022-11-20T13:18:38;7.40;1.00
9885;DHT22;4981;50.966;4.842;2022-11-20T13:21:17;7.50;1.00
9885;DHT22;4981;50.966;4.842;2022-11-20T13:23:44;6.90;1.00
9885;DHT22;4981;50.966;4.842;2022-11-20T13:26:19;7.30;1.00
9885;DHT22;4981;50.966;4.842;2022-11-20T13:28:48;7.40;1.00
9885;DHT22;4981;50.966;4.842;2022-11-20T13:31:33;7.30;1.00
9885;DHT22;4981;50.966;4.842;2022-11-20T13:34:04;7.30;1.00
9885;DHT22;4981;50.966;4.842;2022-11-20T13:36:32;7.40;1.00
9885;DHT22;4981;50.966;4.842;2022-11-20T13:39:02;7.40;1.00
9885;DHT22;4981;50.966;4.842;2022-11-20T13:41:33;7.40;1.00
9885;DHT22;4981;50.966;4.842;2022-11-20T13:44:13;7.40;1.00
9885;DHT22;4981;50.966;4.842;2022-11-20T13:46:44;7.40;1.00
9885;DHT22;4981;50.966;4.842;2022-11-20T13:49:18;7.40;1.00
9885;DHT22;4981;50.966;4.842;2022-11-20T13:51:47;7.40;1.00
9885;DHT22;4981;50.966;4.842;2022-11-20T13:57:51;7.40;1.00
9885;DHT22;4981;50.966;4.842;2022-11-20T14:00:22;7.40;1.00
9885;DHT22;4981;50.966;4.842;2022-11-20T14:02:59;7.40;1.00
9885;DHT22;4981;50.966;4.842;2022-11-20T14:05:28;7.40;1.00
9885;DHT22;4981;50.966;4.842;2022-11-20T14:07:58;7.30;1.00
9885;DHT22;4981;50.966;4.842;2022-11-20T14:10:27;7.40;1.00
9885;DHT22;4981;50.966;4.842;2022-11-20T14:12:56;7.40;1.00
9885;DHT22;4981;50.966;4.842;2022-11-20T14:15:26;7.40;1.00
9885;DHT22;4981;50.966;4.842;2022-11-20T14:17:54;7.40;1.00
9885;DHT22;4981;50.966;4.842;2022-11-20T14:20:24;7.30;1.00
9885;DHT22;4981;50.966;4.842;2022-11-20T14:22:53;7.30;1.00
9885;DHT22;4981;50.966;4.842;2022-11-20T14:25:22;7.30;1.00
9885;DHT22;4981;50.966;4.842;2022-11-20T14:27:53;7.30;1.00
9885;DHT22;4981;50.966;4.842;2022-11-20T14:30:26;7.80;1.00
9885;DHT22;4981;50.966;4.842;2022-11-20T14:32:55;7.30;1.00
9885;DHT22;4981;50.966;4.842;2022-11-20T14:35:26;7.30;1.00
9885;DHT22;4981;50.966;4.842;2022-11-20T14:37:55;7.30;1.00
9885;DHT22;4981;50.966;4.842;2022-11-20T14:40:26;7.30;1.00
9885;DHT22;4981;50.966;4.842;2022-11-20T14:42:55;7.50;1.00
9885;DHT22;4981;50.966;4.842;2022-11-20T14:45:25;7.30;1.00
9885;DHT22;4981;50.966;4.842;2022-11-20T14:47:55;6.30;1.00
9885;DHT22;4981;50.966;4.842;2022-11-20T14:50:23;7.30;1.00
9885;DHT22;4981;50.966;4.842;2022-11-20T14:52:53;7.30;1.00
9885;DHT22;4981;50.966;4.842;2022-11-20T14:55:29;7.20;1.00
9885;DHT22;4981;50.966;4.842;2022-11-20T14:57:58;7.40;1.00
9885;DHT22;4981;50.966;4.842;2022-11-20T15:00:28;7.30;1.00
9885;DHT22;4981;50.966;4.842;2022-11-20T15:02:56;7.30;1.00
9885;DHT22;4981;50.966;4.842;2022-11-20T15:05:25;7.30;1.00
9885;DHT22;4981;50.966;4.842;2022-11-20T15:08:05;7.30;1.00
9885;DHT22;4981;50.966;4.842;2022-11-20T15:10:33;7.30;1.00
9885;DHT22;4981;50.966;4.842;2022-11-20T15:13:02;7.50;1.00
9885;DHT22;4981;50.966;4.842;2022-11-20T15:15:36;7.30;1.00
9885;DHT22;4981;50.966;4.842;2022-11-20T15:18:11;7.40;1.00
9885;DHT22;4981;50.966;4.842;2022-11-20T15:20:40;7.40;1.00
9885;DHT22;4981;50.966;4.842;2022-11-20T15:23:10;7.40;1.00
9885;DHT22;4981;50.966;4.842;2022-11-20T15:25:38;7.40;1.00
9885;DHT22;4981;50.966;4.842;2022-11-20T15:28:13;7.40;1.00
9885;DHT22;4981;50.966;4.842;2022-11-20T15:30:45;7.40;1.00
9885;DHT22;4981;50.966;4.842;2022-11-20T15:33:13;7.40;1.00
9885;DHT22;4981;50.966;4.842;2022-11-20T15:35:40;7.40;1.00
9885;DHT22;4981;50.966;4.842;2022-11-20T15:38:07;7.20;1.00
9885;DHT22;4981;50.966;4.842;2022-11-20T15:40:34;7.40;1.00
9885;DHT22;4981;50.966;4.842;2022-11-20T15:43:01;7.60;1.00
9885;DHT22;4981;50.966;4.842;2022-11-20T15:45:37;7.40;1.00
9885;DHT22;4981;50.966;4.842;2022-11-20T15:48:09;7.70;1.00
9885;DHT22;4981;50.966;4.842;2022-11-20T15:50:41;7.60;1.00
9885;DHT22;4981;50.966;4.842;2022-11-20T15:53:10;7.60;1.00
9885;DHT22;4981;50.966;4.842;2022-11-20T15:55:37;7.60;1.00
9885;DHT22;4981;50.966;4.842;2022-11-20T15:58:05;7.60;1.00
9885;DHT22;4981;50.966;4.842;2022-11-20T16:00:32;7.70;1.00
9885;DHT22;4981;50.966;4.842;2022-11-20T16:02:59;7.70;1.00
9885;DHT22;4981;50.966;4.842;2022-11-20T16:05:29;7.80;1.00
9885;DHT22;4981;50.966;4.842;2022-11-20T16:07:57;7.80;1.00
9885;DHT22;4981;50.966;4.842;2022-11-20T16:10:24;7.80;1.00
9885;DHT22;4981;50.966;4.842;2022-11-20T16:12:51;7.80;1.00
9885;DHT22;4981;50.966;4.842;2022-11-20T16:15:36;8.00;1.00
9885;DHT22;4981;50.966;4.842;2022-11-20T16:18:14;7.90;1.00
9885;DHT22;4981;50.966;4.842;2022-11-20T16:20:43;7.90;1.00
9885;DHT22;4981;50.966;4.842;2022-11-20T16:23:11;8.00;1.00
9885;DHT22;4981;50.966;4.842;2022-11-20T16:25:39;7.90;1.00
9885;DHT22;4981;50.966;4.842;2022-11-20T16:28:06;7.90;1.00
9885;DHT22;4981;50.966;4.842;2022-11-20T16:30:33;8.00;1.00
9885;DHT22;4981;50.966;4.842;2022-11-20T16:33:01;8.00;1.00
9885;DHT22;4981;50.966;4.842;2022-11-20T16:35:29;8.10;1.00
9885;DHT22;4981;50.966;4.842;2022-11-20T16:37:58;8.10;1.00
9885;DHT22;4981;50.966;4.842;2022-11-20T16:40:25;8.00;1.00
9885;DHT22;4981;50.966;4.842;2022-11-20T16:42:52;8.00;1.00
9885;DHT22;4981;50.966;4.842;2022-11-20T16:45:20;8.00;1.00
9885;DHT22;4981;50.966;4.842;2022-11-20T16:47:47;8.00;1.00
9885;DHT22;4981;50.966;4.842;2022-11-20T16:50:14;7.90;1.00
9885;DHT22;4981;50.966;4.842;2022-11-20T16:52:42;8.10;1.00
9885;DHT22;4981;50.966;4.842;2022-11-20T16:55:10;8.20;1.00
9885;DHT22;4981;50.966;4.842;2022-11-20T16:57:39;8.00;1.00
9885;DHT22;4981;50.966;4.842;2022-11-20T17:00:08;8.00;1.00